sensor_id;sensor_type;location;lat;lon;timestamp;P1;durP1;ratioP1;P2;durP2;ratioP2
1366;SDS011;16877;48.810;9.282;2023-01-01T00:01:04;17.17;;;15.57;;
1366;SDS011;16877;48.810;9.282;2023-01-01T00:03:32;21.20;;;18.17;;
1366;SDS011;16877;48.810;9.282;2023-01-01T00:06:03;20.20;;;18.07;;
1366;SDS011;16877;48.810;9.282;2023-01-01T00:08:31;23.37;;;19.17;;
1366;SDS011;16877;48.810;9.282;2023-01-01T00:13:52;23.10;;;20.83;;
1366;SDS011;16877;48.810;9.282;2023-01-01T00:16:34;21.47;;;19.27;;
1366;SDS011;16877;48.810;9.282;2023-01-01T00:19:01;21.40;;;19.30;;
1366;SDS011;16877;48.810;9.282;2023-01-01T00:21:29;22.73;;;18.80;;
1366;SDS011;16877;48.810;9.282;2023-01-01T00:23:56;21.53;;;19.43;;
1366;SDS011;16877;48.810;9.282;2023-01-01T00:26:25;20.23;;;18.23;;
1366;SDS011;16877;48.810;9.282;2023-01-01T00:28:53;18.70;;;16.73;;
1366;SDS011;16877;48.810;9.282;2023-01-01T00:31:20;19.03;;;16.17;;
1366;SDS011;16877;48.810;9.282;2023-01-01T00:33:50;19.07;;;17.07;;
1366;SDS011;16877;48.810;9.282;2023-01-01T00:36:19;17.87;;;15.30;;
1366;SDS011;16877;48.810;9.282;2023-01-01T00:38:48;14.77;;;13.37;;
1366;SDS011;16877;48.810;9.282;2023-01-01T00:41:16;15.20;;;13.60;;
1366;SDS011;16877;48.810;9.282;2023-01-01T00:43:45;14.37;;;12.93;;
1366;SDS011;16877;48.810;9.282;2023-01-01T00:46:27;18.70;;;13.13;;
1366;SDS011;16877;48.810;9.282;2023-01-01T00:48:55;14.73;;;13.30;;
1366;SDS011;16877;48.810;9.282;2023-01-01T00:51:23;14.63;;;13.00;;
1366;SDS011;16877;48.810;9.282;2023-01-01T00:53:51;13.53;;;12.23;;
1366;SDS011;16877;48.810;9.282;2023-01-01T00:56:18;12.93;;;10.90;;
1366;SDS011;16877;48.810;9.282;2023-01-01T00:58:48;11.70;;;10.30;;
1366;SDS011;16877;48.810;9.282;2023-01-01T01:01:15;12.20;;;10.03;;
1366;SDS011;16877;48.810;9.282;2023-01-01T01:03:42;12.13;;;10.07;;
1366;SDS011;16877;48.810;9.282;2023-01-01T01:06:11;12.07;;;9.60;;
1366;SDS011;16877;48.810;9.282;2023-01-01T01:08:40;10.20;;;8.67;;
1366;SDS011;16877;48.810;9.282;2023-01-01T01:11:11;10.83;;;9.73;;
1366;SDS011;16877;48.810;9.282;2023-01-01T01:13:40;11.00;;;9.23;;
1366;SDS011;16877;48.810;9.282;2023-01-01T01:16:25;10.30;;;9.30;;
1366;SDS011;16877;48.810;9.282;2023-01-01T01:18:55;9.83;;;8.63;;
1366;SDS011;16877;48.810;9.282;2023-01-01T01:21:25;8.83;;;7.93;;
1366;SDS011;16877;48.810;9.282;2023-01-01T01:23:55;10.60;;;8.87;;
1366;SDS011;16877;48.810;9.282;2023-01-01T01:26:24;10.47;;;8.97;;
1366;SDS011;16877;48.810;9.282;2023-01-01T01:28:54;8.33;;;7.50;;
1366;SDS011;16877;48.810;9.282;2023-01-01T01:31:26;10.37;;;8.63;;
1366;SDS011;16877;48.810;9.282;2023-01-01T01:33:55;10.23;;;9.23;;
1366;SDS011;16877;48.810;9.282;2023-01-01T01:36:23;10.27;;;9.17;;
1366;SDS011;16877;48.810;9.282;2023-01-01T01:38:51;10.73;;;8.63;;
1366;SDS011;16877;48.810;9.282;2023-01-01T01:41:19;14.90;;;10.63;;
1366;SDS011;16877;48.810;9.282;2023-01-01T01:43:50;12.47;;;10.10;;
1366;SDS011;16877;48.810;9.282;2023-01-01T01:46:20;11.33;;;9.27;;
1366;SDS011;16877;48.810;9.282;2023-01-01T01:48:56;11.40;;;10.03;;
1366;SDS011;16877;48.810;9.282;2023-01-01T01:51:29;9.73;;;8.73;;
1366;SDS011;16877;48.810;9.282;2023-01-01T01:54:02;10.33;;;9.33;;
1366;SDS011;16877;48.810;9.282;2023-01-01T01:56:48;10.83;;;9.53;;
1366;SDS011;16877;48.810;9.282;2023-01-01T01:59:18;11.57;;;8.97;;
1366;SDS011;16877;48.810;9.282;2023-01-01T02:01:50;9.73;;;8.77;;
1366;SDS011;16877;48.810;9.282;2023-01-01T02:04:19;10.20;;;8.50;;
1366;SDS011;16877;48.810;9.282;2023-01-01T02:06:47;9.43;;;8.50;;
1366;SDS011;16877;48.810;9.282;2023-01-01T02:09:30;9.20;;;8.13;;
1366;SDS011;16877;48.810;9.282;2023-01-01T02:11:57;11.27;;;8.53;;
1366;SDS011;16877;48.810;9.282;2023-01-01T02:14:25;9.43;;;8.43;;
1366;SDS011;16877;48.810;9.282;2023-01-01T02:16:54;10.73;;;8.80;;
1366;SDS011;16877;48.810;9.282;2023-01-01T02:19:28;10.40;;;9.27;;
1366;SDS011;16877;48.810;9.282;2023-01-01T02:22:06;10.60;;;8.70;;
1366;SDS011;16877;48.810;9.282;2023-01-01T02:27:32;15.67;;;10.10;;
1366;SDS011;16877;48.810;9.282;2023-01-01T02:30:08;11.67;;;10.30;;
1366;SDS011;16877;48.810;9.282;2023-01-01T02:32:39;11.53;;;10.30;;
1366;SDS011;16877;48.810;9.282;2023-01-01T02:35:11;10.83;;;9.67;;
1366;SDS011;16877;48.810;9.282;2023-01-01T02:38:03;11.50;;;10.30;;
1366;SDS011;16877;48.810;9.282;2023-01-01T02:40:34;11.57;;;10.17;;
1366;SDS011;16877;48.810;9.282;2023-01-01T02:43:03;11.53;;;9.70;;
1366;SDS011;16877;48.810;9.282;2023-01-01T02:45:34;11.00;;;9.30;;
1366;SDS011;16877;48.810;9.282;2023-01-01T02:48:02;9.80;;;8.80;;
1366;SDS011;16877;48.810;9.282;2023-01-01T02:50:30;13.17;;;11.23;;
1366;SDS011;16877;48.810;9.282;2023-01-01T02:53:01;15.63;;;14.13;;
1366;SDS011;16877;48.810;9.282;2023-01-01T02:55:46;16.03;;;14.33;;
1366;SDS011;16877;48.810;9.282;2023-01-01T02:58:23;13.20;;;11.90;;
1366;SDS011;16877;48.810;9.282;2023-01-01T03:01:18;12.10;;;10.97;;
1366;SDS011;16877;48.810;9.282;2023-01-01T03:03:53;10.40;;;9.33;;
1366;SDS011;16877;48.810;9.282;2023-01-01T03:06:43;11.60;;;10.50;;
1366;SDS011;16877;48.810;9.282;2023-01-01T03:09:18;11.97;;;10.60;;
1366;SDS011;16877;48.810;9.282;2023-01-01T03:11:54;11.30;;;9.57;;
1366;SDS011;16877;48.810;9.282;2023-01-01T03:14:26;10.80;;;9.67;;
1366;SDS011;16877;48.810;9.282;2023-01-01T03:17:06;10.77;;;9.47;;
1366;SDS011;16877;48.810;9.282;2023-01-01T03:19:37;10.03;;;7.77;;
1366;SDS011;16877;48.810;9.282;2023-01-01T03:22:08;8.90;;;7.60;;
1366;SDS011;16877;48.810;9.282;2023-01-01T03:24:39;10.47;;;7.60;;
1366;SDS011;16877;48.810;9.282;2023-01-01T03:27:11;8.20;;;7.07;;
1366;SDS011;16877;48.810;9.282;2023-01-01T03:29:41;9.00;;;8.07;;
1366;SDS011;16877;48.810;9.282;2023-01-01T03:32:12;7.60;;;6.53;;
1366;SDS011;16877;48.810;9.282;2023-01-01T03:34:44;8.50;;;7.50;;
1366;SDS011;16877;48.810;9.282;2023-01-01T03:37:18;8.87;;;6.97;;
1366;SDS011;16877;48.810;9.282;2023-01-01T03:39:50;7.80;;;5.97;;
1366;SDS011;16877;48.810;9.282;2023-01-01T03:42:20;6.90;;;6.20;;
1366;SDS011;16877;48.810;9.282;2023-01-01T03:44:51;7.63;;;6.63;;
1366;SDS011;16877;48.810;9.282;2023-01-01T03:47:23;7.53;;;5.97;;
1366;SDS011;16877;48.810;9.282;2023-01-01T03:49:51;7.47;;;6.47;;
1366;SDS011;16877;48.810;9.282;2023-01-01T03:52:24;8.03;;;6.20;;
1366;SDS011;16877;48.810;9.282;2023-01-01T03:55:01;9.30;;;6.30;;
1366;SDS011;16877;48.810;9.282;2023-01-01T03:57:32;8.20;;;6.20;;
1366;SDS011;16877;48.810;9.282;2023-01-01T04:00:07;6.80;;;6.10;;
1366;SDS011;16877;48.810;9.282;2023-01-01T04:02:42;8.30;;;6.67;;
1366;SDS011;16877;48.810;9.282;2023-01-01T04:05:12;7.73;;;5.87;;
1366;SDS011;16877;48.810;9.282;2023-01-01T04:07:41;7.20;;;5.70;;
1366;SDS011;16877;48.810;9.282;2023-01-01T04:10:09;5.73;;;5.10;;
1366;SDS011;16877;48.810;9.282;2023-01-01T04:12:46;7.20;;;5.47;;
1366;SDS011;16877;48.810;9.282;2023-01-01T04:15:14;6.70;;;5.30;;
1366;SDS011;16877;48.810;9.282;2023-01-01T04:17:43;7.83;;;5.60;;
1366;SDS011;16877;48.810;9.282;2023-01-01T04:20:11;5.70;;;5.00;;
1366;SDS011;16877;48.810;9.282;2023-01-01T04:22:39;6.80;;;5.20;;
1366;SDS011;16877;48.810;9.282;2023-01-01T04:25:07;7.67;;;5.47;;
1366;SDS011;16877;48.810;9.282;2023-01-01T04:27:35;5.77;;;4.90;;
1366;SDS011;16877;48.810;9.282;2023-01-01T04:30:03;6.60;;;5.00;;
1366;SDS011;16877;48.810;9.282;2023-01-01T04:32:31;7.83;;;5.80;;
1366;SDS011;16877;48.810;9.282;2023-01-01T04:37:44;6.00;;;4.87;;
1366;SDS011;16877;48.810;9.282;2023-01-01T04:40:25;5.70;;;4.90;;
1366;SDS011;16877;48.810;9.282;2023-01-01T04:42:53;5.90;;;4.70;;
1366;SDS011;16877;48.810;9.282;2023-01-01T04:45:20;5.20;;;4.70;;
1366;SDS011;16877;48.810;9.282;2023-01-01T04:47:48;6.63;;;4.67;;
1366;SDS011;16877;48.810;9.282;2023-01-01T04:50:21;6.07;;;4.27;;
1366;SDS011;16877;48.810;9.282;2023-01-01T04:52:48;4.90;;;4.10;;
1366;SDS011;16877;48.810;9.282;2023-01-01T04:55:18;7.00;;;4.40;;
1366;SDS011;16877;48.810;9.282;2023-01-01T04:57:45;5.50;;;4.23;;
1366;SDS011;16877;48.810;9.282;2023-01-01T05:00:13;4.53;;;3.60;;
1366;SDS011;16877;48.810;9.282;2023-01-01T05:02:41;5.90;;;4.53;;
1366;SDS011;16877;48.810;9.282;2023-01-01T05:05:10;6.20;;;3.73;;
1366;SDS011;16877;48.810;9.282;2023-01-01T05:07:44;6.53;;;4.70;;
1366;SDS011;16877;48.810;9.282;2023-01-01T05:10:12;5.40;;;4.00;;
1366;SDS011;16877;48.810;9.282;2023-01-01T05:12:39;6.90;;;4.40;;
1366;SDS011;16877;48.810;9.282;2023-01-01T05:15:07;4.93;;;3.40;;
1366;SDS011;16877;48.810;9.282;2023-01-01T05:17:35;6.47;;;4.77;;
1366;SDS011;16877;48.810;9.282;2023-01-01T05:20:03;5.27;;;4.20;;
1366;SDS011;16877;48.810;9.282;2023-01-01T05:22:31;6.60;;;4.03;;
1366;SDS011;16877;48.810;9.282;2023-01-01T05:25:00;5.40;;;4.00;;
1366;SDS011;16877;48.810;9.282;2023-01-01T05:27:28;6.40;;;4.20;;
1366;SDS011;16877;48.810;9.282;2023-01-01T05:29:56;6.50;;;4.30;;
1366;SDS011;16877;48.810;9.282;2023-01-01T05:32:23;5.90;;;4.07;;
1366;SDS011;16877;48.810;9.282;2023-01-01T05:34:51;5.00;;;3.60;;
1366;SDS011;16877;48.810;9.282;2023-01-01T05:37:19;6.80;;;3.90;;
1366;SDS011;16877;48.810;9.282;2023-01-01T05:39:46;5.57;;;3.80;;
1366;SDS011;16877;48.810;9.282;2023-01-01T05:42:16;4.67;;;3.57;;
1366;SDS011;16877;48.810;9.282;2023-01-01T05:44:44;5.57;;;4.07;;
1366;SDS011;16877;48.810;9.282;2023-01-01T05:47:11;4.93;;;3.63;;
1366;SDS011;16877;48.810;9.282;2023-01-01T05:49:41;4.77;;;3.63;;
1366;SDS011;16877;48.810;9.282;2023-01-01T05:52:09;5.43;;;3.50;;
1366;SDS011;16877;48.810;9.282;2023-01-01T05:54:37;5.87;;;3.50;;
1366;SDS011;16877;48.810;9.282;2023-01-01T05:57:04;4.20;;;3.70;;
1366;SDS011;16877;48.810;9.282;2023-01-01T05:59:33;5.50;;;3.80;;
1366;SDS011;16877;48.810;9.282;2023-01-01T06:02:02;5.70;;;3.63;;
1366;SDS011;16877;48.810;9.282;2023-01-01T06:04:29;4.97;;;3.50;;
1366;SDS011;16877;48.810;9.282;2023-01-01T06:06:56;6.00;;;4.17;;
1366;SDS011;16877;48.810;9.282;2023-01-01T06:09:24;6.47;;;3.90;;
1366;SDS011;16877;48.810;9.282;2023-01-01T06:11:52;5.80;;;3.63;;
1366;SDS011;16877;48.810;9.282;2023-01-01T06:14:23;5.77;;;3.80;;
1366;SDS011;16877;48.810;9.282;2023-01-01T06:16:53;5.03;;;3.87;;
1366;SDS011;16877;48.810;9.282;2023-01-01T06:19:20;6.00;;;4.50;;
1366;SDS011;16877;48.810;9.282;2023-01-01T06:21:51;5.20;;;3.37;;
1366;SDS011;16877;48.810;9.282;2023-01-01T06:24:19;4.50;;;3.40;;
1366;SDS011;16877;48.810;9.282;2023-01-01T06:26:46;4.47;;;3.57;;
1366;SDS011;16877;48.810;9.282;2023-01-01T06:29:14;4.33;;;3.23;;
1366;SDS011;16877;48.810;9.282;2023-01-01T06:31:41;5.07;;;3.73;;
1366;SDS011;16877;48.810;9.282;2023-01-01T06:34:11;5.13;;;3.70;;
1366;SDS011;16877;48.810;9.282;2023-01-01T06:36:39;4.40;;;2.97;;
1366;SDS011;16877;48.810;9.282;2023-01-01T06:39:07;4.30;;;3.00;;
1366;SDS011;16877;48.810;9.282;2023-01-01T06:41:34;4.23;;;3.20;;
1366;SDS011;16877;48.810;9.282;2023-01-01T06:44:02;4.80;;;3.73;;
1366;SDS011;16877;48.810;9.282;2023-01-01T06:46:30;5.97;;;3.67;;
1366;SDS011;16877;48.810;9.282;2023-01-01T06:48:59;4.80;;;3.40;;
1366;SDS011;16877;48.810;9.282;2023-01-01T06:51:29;4.87;;;3.20;;
1366;SDS011;16877;48.810;9.282;2023-01-01T06:53:58;4.47;;;3.20;;
1366;SDS011;16877;48.810;9.282;2023-01-01T06:56:26;4.17;;;3.10;;
1366;SDS011;16877;48.810;9.282;2023-01-01T06:58:54;6.10;;;3.57;;
1366;SDS011;16877;48.810;9.282;2023-01-01T07:01:22;4.20;;;3.40;;
1366;SDS011;16877;48.810;9.282;2023-01-01T07:03:52;4.90;;;3.50;;
1366;SDS011;16877;48.810;9.282;2023-01-01T07:06:20;7.23;;;3.40;;
1366;SDS011;16877;48.810;9.282;2023-01-01T07:08:50;3.80;;;2.50;;
1366;SDS011;16877;48.810;9.282;2023-01-01T07:11:18;4.73;;;3.00;;
1366;SDS011;16877;48.810;9.282;2023-01-01T07:13:45;4.73;;;3.43;;
1366;SDS011;16877;48.810;9.282;2023-01-01T07:16:13;4.93;;;2.70;;
1366;SDS011;16877;48.810;9.282;2023-01-01T07:18:41;4.43;;;3.13;;
1366;SDS011;16877;48.810;9.282;2023-01-01T07:21:28;5.50;;;3.07;;
1366;SDS011;16877;48.810;9.282;2023-01-01T07:23:59;5.37;;;3.00;;
1366;SDS011;16877;48.810;9.282;2023-01-01T07:26:27;4.00;;;3.00;;
1366;SDS011;16877;48.810;9.282;2023-01-01T07:29:10;4.23;;;2.77;;
1366;SDS011;16877;48.810;9.282;2023-01-01T07:31:38;4.47;;;2.90;;
1366;SDS011;16877;48.810;9.282;2023-01-01T07:34:08;5.33;;;3.10;;
1366;SDS011;16877;48.810;9.282;2023-01-01T07:36:39;6.87;;;2.73;;
1366;SDS011;16877;48.810;9.282;2023-01-01T07:39:08;4.30;;;2.50;;
1366;SDS011;16877;48.810;9.282;2023-01-01T07:41:39;3.87;;;2.10;;
1366;SDS011;16877;48.810;9.282;2023-01-01T07:44:10;4.07;;;2.60;;
1366;SDS011;16877;48.810;9.282;2023-01-01T07:46:38;5.10;;;2.60;;
1366;SDS011;16877;48.810;9.282;2023-01-01T07:49:08;4.00;;;2.60;;
1366;SDS011;16877;48.810;9.282;2023-01-01T07:51:35;5.10;;;3.00;;
1366;SDS011;16877;48.810;9.282;2023-01-01T07:56:51;5.20;;;2.70;;
1366;SDS011;16877;48.810;9.282;2023-01-01T07:59:20;3.83;;;2.70;;
1366;SDS011;16877;48.810;9.282;2023-01-01T08:01:51;5.80;;;2.70;;
1366;SDS011;16877;48.810;9.282;2023-01-01T08:04:19;6.40;;;3.20;;
1366;SDS011;16877;48.810;9.282;2023-01-01T08:06:51;6.23;;;2.43;;
1366;SDS011;16877;48.810;9.282;2023-01-01T08:09:20;4.50;;;3.00;;
1366;SDS011;16877;48.810;9.282;2023-01-01T08:14:43;5.13;;;3.30;;
1366;SDS011;16877;48.810;9.282;2023-01-01T08:17:16;5.20;;;3.00;;
1366;SDS011;16877;48.810;9.282;2023-01-01T08:19:46;4.30;;;3.47;;
1366;SDS011;16877;48.810;9.282;2023-01-01T08:22:18;3.60;;;2.57;;
1366;SDS011;16877;48.810;9.282;2023-01-01T08:24:50;4.27;;;2.87;;
1366;SDS011;16877;48.810;9.282;2023-01-01T08:27:22;3.97;;;2.93;;
1366;SDS011;16877;48.810;9.282;2023-01-01T08:30:00;6.73;;;3.43;;
1366;SDS011;16877;48.810;9.282;2023-01-01T08:32:27;6.50;;;4.03;;
1366;SDS011;16877;48.810;9.282;2023-01-01T08:35:10;8.43;;;3.07;;
1366;SDS011;16877;48.810;9.282;2023-01-01T08:37:39;6.57;;;3.10;;
1366;SDS011;16877;48.810;9.282;2023-01-01T08:40:21;5.97;;;3.33;;
1366;SDS011;16877;48.810;9.282;2023-01-01T08:42:54;4.70;;;3.17;;
1366;SDS011;16877;48.810;9.282;2023-01-01T08:45:22;6.17;;;3.23;;
1366;SDS011;16877;48.810;9.282;2023-01-01T08:47:57;5.60;;;3.33;;
1366;SDS011;16877;48.810;9.282;2023-01-01T08:50:26;8.07;;;3.23;;
1366;SDS011;16877;48.810;9.282;2023-01-01T08:52:56;5.13;;;3.50;;
1366;SDS011;16877;48.810;9.282;2023-01-01T08:55:24;5.40;;;3.77;;
1366;SDS011;16877;48.810;9.282;2023-01-01T08:57:52;4.97;;;3.50;;
1366;SDS011;16877;48.810;9.282;2023-01-01T09:00:22;5.17;;;3.27;;
1366;SDS011;16877;48.810;9.282;2023-01-01T09:03:04;6.13;;;3.80;;
1366;SDS011;16877;48.810;9.282;2023-01-01T09:05:31;4.80;;;3.20;;
1366;SDS011;16877;48.810;9.282;2023-01-01T09:07:58;7.13;;;3.50;;
1366;SDS011;16877;48.810;9.282;2023-01-01T09:10:26;4.43;;;3.40;;
1366;SDS011;16877;48.810;9.282;2023-01-01T09:12:56;4.80;;;3.10;;
1366;SDS011;16877;48.810;9.282;2023-01-01T09:15:24;5.43;;;3.63;;
1366;SDS011;16877;48.810;9.282;2023-01-01T09:17:51;8.80;;;6.63;;
1366;SDS011;16877;48.810;9.282;2023-01-01T09:20:22;7.00;;;3.93;;
1366;SDS011;16877;48.810;9.282;2023-01-01T09:22:50;6.40;;;3.80;;
1366;SDS011;16877;48.810;9.282;2023-01-01T09:25:21;6.57;;;3.73;;
1366;SDS011;16877;48.810;9.282;2023-01-01T09:27:48;3.80;;;2.57;;
1366;SDS011;16877;48.810;9.282;2023-01-01T09:30:24;6.60;;;3.20;;
1366;SDS011;16877;48.810;9.282;2023-01-01T09:32:52;4.27;;;3.20;;
1366;SDS011;16877;48.810;9.282;2023-01-01T09:35:20;8.20;;;3.27;;
1366;SDS011;16877;48.810;9.282;2023-01-01T09:37:48;6.27;;;3.77;;
1366;SDS011;16877;48.810;9.282;2023-01-01T09:40:21;8.03;;;3.27;;
1366;SDS011;16877;48.810;9.282;2023-01-01T09:42:56;5.37;;;3.63;;
1366;SDS011;16877;48.810;9.282;2023-01-01T09:45:34;7.10;;;3.57;;
1366;SDS011;16877;48.810;9.282;2023-01-01T09:48:07;5.10;;;3.00;;
1366;SDS011;16877;48.810;9.282;2023-01-01T09:50:42;8.40;;;3.40;;
1366;SDS011;16877;48.810;9.282;2023-01-01T09:53:12;5.40;;;3.60;;
1366;SDS011;16877;48.810;9.282;2023-01-01T09:55:45;4.23;;;3.03;;
1366;SDS011;16877;48.810;9.282;2023-01-01T09:58:24;5.83;;;3.37;;
1366;SDS011;16877;48.810;9.282;2023-01-01T10:00:59;5.40;;;2.73;;
1366;SDS011;16877;48.810;9.282;2023-01-01T10:03:34;4.80;;;3.10;;
1366;SDS011;16877;48.810;9.282;2023-01-01T10:06:12;6.20;;;3.77;;
1366;SDS011;16877;48.810;9.282;2023-01-01T10:08:49;4.57;;;3.13;;
1366;SDS011;16877;48.810;9.282;2023-01-01T10:11:30;6.57;;;3.20;;
1366;SDS011;16877;48.810;9.282;2023-01-01T10:14:21;4.60;;;3.10;;
1366;SDS011;16877;48.810;9.282;2023-01-01T10:16:58;6.83;;;3.00;;
1366;SDS011;16877;48.810;9.282;2023-01-01T10:19:31;7.53;;;3.30;;
1366;SDS011;16877;48.810;9.282;2023-01-01T10:22:09;4.93;;;3.13;;
1366;SDS011;16877;48.810;9.282;2023-01-01T10:24:42;4.20;;;3.07;;
1366;SDS011;16877;48.810;9.282;2023-01-01T10:27:19;3.80;;;2.90;;
1366;SDS011;16877;48.810;9.282;2023-01-01T10:29:53;7.33;;;3.47;;
1366;SDS011;16877;48.810;9.282;2023-01-01T10:32:24;5.13;;;2.97;;
1366;SDS011;16877;48.810;9.282;2023-01-01T10:34:53;4.67;;;3.17;;
1366;SDS011;16877;48.810;9.282;2023-01-01T10:37:37;4.53;;;2.90;;
1366;SDS011;16877;48.810;9.282;2023-01-01T10:40:05;3.70;;;2.73;;
1366;SDS011;16877;48.810;9.282;2023-01-01T10:42:39;6.10;;;3.27;;
1366;SDS011;16877;48.810;9.282;2023-01-01T10:45:12;3.40;;;2.70;;
1366;SDS011;16877;48.810;9.282;2023-01-01T10:50:46;7.70;;;3.40;;
1366;SDS011;16877;48.810;9.282;2023-01-01T10:53:19;5.57;;;3.40;;
1366;SDS011;16877;48.810;9.282;2023-01-01T10:55:56;5.53;;;2.97;;
1366;SDS011;16877;48.810;9.282;2023-01-01T10:58:32;4.80;;;3.13;;
1366;SDS011;16877;48.810;9.282;2023-01-01T11:01:05;4.80;;;3.40;;
1366;SDS011;16877;48.810;9.282;2023-01-01T11:03:54;4.30;;;3.10;;
1366;SDS011;16877;48.810;9.282;2023-01-01T11:06:23;4.57;;;3.20;;
1366;SDS011;16877;48.810;9.282;2023-01-01T11:08:52;5.23;;;3.37;;
1366;SDS011;16877;48.810;9.282;2023-01-01T11:11:24;7.30;;;3.10;;
1366;SDS011;16877;48.810;9.282;2023-01-01T11:14:13;4.80;;;2.90;;
1366;SDS011;16877;48.810;9.282;2023-01-01T11:16:47;4.43;;;3.07;;
1366;SDS011;16877;48.810;9.282;2023-01-01T11:19:16;4.97;;;3.37;;
1366;SDS011;16877;48.810;9.282;2023-01-01T11:21:47;4.73;;;3.00;;
1366;SDS011;16877;48.810;9.282;2023-01-01T11:24:16;6.17;;;3.00;;
1366;SDS011;16877;48.810;9.282;2023-01-01T11:26:48;4.57;;;2.70;;
1366;SDS011;16877;48.810;9.282;2023-01-01T11:29:22;5.93;;;3.60;;
1366;SDS011;16877;48.810;9.282;2023-01-01T11:31:53;4.23;;;2.87;;
1366;SDS011;16877;48.810;9.282;2023-01-01T11:34:25;4.97;;;3.10;;
1366;SDS011;16877;48.810;9.282;2023-01-01T11:37:05;5.80;;;3.00;;
1366;SDS011;16877;48.810;9.282;2023-01-01T11:39:43;6.40;;;3.63;;
1366;SDS011;16877;48.810;9.282;2023-01-01T11:42:17;4.23;;;2.93;;
1366;SDS011;16877;48.810;9.282;2023-01-01T11:44:47;6.83;;;3.63;;
1366;SDS011;16877;48.810;9.282;2023-01-01T11:50:05;5.07;;;3.50;;
1366;SDS011;16877;48.810;9.282;2023-01-01T11:52:52;5.80;;;3.33;;
1366;SDS011;16877;48.810;9.282;2023-01-01T11:55:23;4.27;;;2.90;;
1366;SDS011;16877;48.810;9.282;2023-01-01T11:58:03;6.30;;;3.20;;
1366;SDS011;16877;48.810;9.282;2023-01-01T12:00:36;4.80;;;2.90;;
1366;SDS011;16877;48.810;9.282;2023-01-01T12:03:10;4.33;;;3.00;;
1366;SDS011;16877;48.810;9.282;2023-01-01T12:05:46;8.57;;;3.90;;
1366;SDS011;16877;48.810;9.282;2023-01-01T12:08:19;4.90;;;3.07;;
1366;SDS011;16877;48.810;9.282;2023-01-01T12:10:57;5.77;;;2.87;;
1366;SDS011;16877;48.810;9.282;2023-01-01T12:13:29;6.83;;;2.83;;
1366;SDS011;16877;48.810;9.282;2023-01-01T12:16:05;3.87;;;2.60;;
1366;SDS011;16877;48.810;9.282;2023-01-01T12:18:38;4.03;;;2.60;;
1366;SDS011;16877;48.810;9.282;2023-01-01T12:21:13;4.77;;;2.83;;
1366;SDS011;16877;48.810;9.282;2023-01-01T12:23:47;5.53;;;2.70;;
1366;SDS011;16877;48.810;9.282;2023-01-01T12:26:18;3.77;;;2.50;;
1366;SDS011;16877;48.810;9.282;2023-01-01T12:29:12;3.63;;;2.33;;
1366;SDS011;16877;48.810;9.282;2023-01-01T12:31:56;5.80;;;2.30;;
1366;SDS011;16877;48.810;9.282;2023-01-01T12:34:33;5.00;;;2.80;;
1366;SDS011;16877;48.810;9.282;2023-01-01T12:37:10;5.30;;;2.87;;
1366;SDS011;16877;48.810;9.282;2023-01-01T12:39:59;5.87;;;3.50;;
1366;SDS011;16877;48.810;9.282;2023-01-01T12:42:55;8.17;;;2.77;;
1366;SDS011;16877;48.810;9.282;2023-01-01T12:45:31;5.93;;;3.33;;
1366;SDS011;16877;48.810;9.282;2023-01-01T12:48:53;4.27;;;2.47;;
1366;SDS011;16877;48.810;9.282;2023-01-01T12:51:42;5.10;;;2.63;;
1366;SDS011;16877;48.810;9.282;2023-01-01T12:57:30;5.23;;;2.90;;
1366;SDS011;16877;48.810;9.282;2023-01-01T13:00:01;4.83;;;2.47;;
1366;SDS011;16877;48.810;9.282;2023-01-01T13:02:32;5.23;;;2.70;;
1366;SDS011;16877;48.810;9.282;2023-01-01T13:05:04;3.93;;;2.57;;
1366;SDS011;16877;48.810;9.282;2023-01-01T13:07:41;5.43;;;3.00;;
1366;SDS011;16877;48.810;9.282;2023-01-01T13:10:17;4.00;;;2.70;;
1366;SDS011;16877;48.810;9.282;2023-01-01T13:12:49;5.23;;;3.10;;
1366;SDS011;16877;48.810;9.282;2023-01-01T13:18:17;4.63;;;2.50;;
1366;SDS011;16877;48.810;9.282;2023-01-01T13:20:53;6.20;;;2.60;;
1366;SDS011;16877;48.810;9.282;2023-01-01T13:23:44;5.27;;;2.50;;
1366;SDS011;16877;48.810;9.282;2023-01-01T13:26:31;5.90;;;2.30;;
1366;SDS011;16877;48.810;9.282;2023-01-01T13:31:59;5.87;;;3.37;;
1366;SDS011;16877;48.810;9.282;2023-01-01T13:40:30;5.60;;;3.17;;
1366;SDS011;16877;48.810;9.282;2023-01-01T13:43:16;10.10;;;3.10;;
1366;SDS011;16877;48.810;9.282;2023-01-01T13:45:45;3.10;;;2.00;;
1366;SDS011;16877;48.810;9.282;2023-01-01T13:48:25;4.70;;;2.73;;
1366;SDS011;16877;48.810;9.282;2023-01-01T13:51:15;7.87;;;2.30;;
1366;SDS011;16877;48.810;9.282;2023-01-01T13:54:03;3.70;;;2.47;;
1366;SDS011;16877;48.810;9.282;2023-01-01T13:56:46;3.90;;;2.20;;
1366;SDS011;16877;48.810;9.282;2023-01-01T13:59:27;4.77;;;2.43;;
1366;SDS011;16877;48.810;9.282;2023-01-01T14:02:15;4.60;;;2.57;;
1366;SDS011;16877;48.810;9.282;2023-01-01T14:04:48;5.77;;;3.43;;
1366;SDS011;16877;48.810;9.282;2023-01-01T14:07:22;4.40;;;2.80;;
1366;SDS011;16877;48.810;9.282;2023-01-01T14:12:47;6.30;;;3.83;;
1366;SDS011;16877;48.810;9.282;2023-01-01T14:15:16;4.83;;;3.50;;
1366;SDS011;16877;48.810;9.282;2023-01-01T14:17:50;6.50;;;4.47;;
1366;SDS011;16877;48.810;9.282;2023-01-01T14:20:18;7.10;;;4.73;;
1366;SDS011;16877;48.810;9.282;2023-01-01T14:22:49;6.57;;;4.10;;
1366;SDS011;16877;48.810;9.282;2023-01-01T14:25:19;6.20;;;4.07;;
1366;SDS011;16877;48.810;9.282;2023-01-01T14:27:53;5.70;;;4.27;;
1366;SDS011;16877;48.810;9.282;2023-01-01T14:30:22;5.00;;;4.40;;
1366;SDS011;16877;48.810;9.282;2023-01-01T14:32:56;6.23;;;5.07;;
1366;SDS011;16877;48.810;9.282;2023-01-01T14:35:24;10.80;;;4.30;;
1366;SDS011;16877;48.810;9.282;2023-01-01T14:37:53;6.03;;;4.93;;
1366;SDS011;16877;48.810;9.282;2023-01-01T14:40:21;4.23;;;3.33;;
1366;SDS011;16877;48.810;9.282;2023-01-01T14:42:57;9.67;;;5.17;;
1366;SDS011;16877;48.810;9.282;2023-01-01T14:45:27;7.00;;;4.87;;
1366;SDS011;16877;48.810;9.282;2023-01-01T14:47:56;7.63;;;4.80;;
1366;SDS011;16877;48.810;9.282;2023-01-01T14:50:26;7.93;;;4.90;;
1366;SDS011;16877;48.810;9.282;2023-01-01T14:53:00;6.13;;;4.60;;
1366;SDS011;16877;48.810;9.282;2023-01-01T14:55:37;6.40;;;5.00;;
1366;SDS011;16877;48.810;9.282;2023-01-01T14:58:10;7.93;;;4.40;;
1366;SDS011;16877;48.810;9.282;2023-01-01T15:03:53;10.00;;;4.70;;
1366;SDS011;16877;48.810;9.282;2023-01-01T15:06:22;5.53;;;4.10;;
1366;SDS011;16877;48.810;9.282;2023-01-01T15:08:51;6.87;;;4.30;;
1366;SDS011;16877;48.810;9.282;2023-01-01T15:11:19;6.77;;;4.50;;
1366;SDS011;16877;48.810;9.282;2023-01-01T15:13:55;5.57;;;4.70;;
1366;SDS011;16877;48.810;9.282;2023-01-01T15:16:25;6.77;;;5.23;;
1366;SDS011;16877;48.810;9.282;2023-01-01T15:18:53;6.23;;;4.20;;
1366;SDS011;16877;48.810;9.282;2023-01-01T15:21:32;4.37;;;3.93;;
1366;SDS011;16877;48.810;9.282;2023-01-01T15:24:03;6.53;;;4.53;;
1366;SDS011;16877;48.810;9.282;2023-01-01T15:26:38;6.10;;;4.37;;
1366;SDS011;16877;48.810;9.282;2023-01-01T15:29:10;6.17;;;4.03;;
1366;SDS011;16877;48.810;9.282;2023-01-01T15:31:53;5.30;;;4.63;;
1366;SDS011;16877;48.810;9.282;2023-01-01T15:34:23;6.60;;;4.57;;
1366;SDS011;16877;48.810;9.282;2023-01-01T15:36:52;5.17;;;3.93;;
1366;SDS011;16877;48.810;9.282;2023-01-01T15:39:21;6.40;;;4.00;;
1366;SDS011;16877;48.810;9.282;2023-01-01T15:41:49;6.03;;;4.60;;
1366;SDS011;16877;48.810;9.282;2023-01-01T15:44:24;6.37;;;4.67;;
1366;SDS011;16877;48.810;9.282;2023-01-01T15:46:52;5.20;;;4.23;;
1366;SDS011;16877;48.810;9.282;2023-01-01T15:49:37;7.10;;;4.27;;
1366;SDS011;16877;48.810;9.282;2023-01-01T15:52:13;5.37;;;4.00;;
1366;SDS011;16877;48.810;9.282;2023-01-01T15:54:44;5.20;;;3.97;;
1366;SDS011;16877;48.810;9.282;2023-01-01T15:57:14;4.83;;;3.90;;
1366;SDS011;16877;48.810;9.282;2023-01-01T15:59:50;5.63;;;3.70;;
1366;SDS011;16877;48.810;9.282;2023-01-01T16:02:22;4.67;;;3.93;;
1366;SDS011;16877;48.810;9.282;2023-01-01T16:04:52;4.67;;;3.87;;
1366;SDS011;16877;48.810;9.282;2023-01-01T16:07:20;5.70;;;3.50;;
1366;SDS011;16877;48.810;9.282;2023-01-01T16:09:53;4.43;;;3.60;;